Aérodrome :
LOGIN :

S'inscrire | Disclaimer

   EN    FR    IT 

 










Légende :    VFR   VFR Marginal   IFR   IFR Intensif   IFR Très Intensif
Visi : 
Plafond : 
>= 8 km
>= 3000ft
5 à 8 km
1000 à 3000 ft
1500m à 5 km
500 à 1000 ft
800 à 1500m
200 à 500 ft
< 800m
< 200 ft
Symboles :   Orages  Brouillard  Fortes neiges  Fortes précipitations  Vent > 20 kt
SIGMETs :   Divers  Orages  Givrage  Turbulence  Onde Orograph.  Cendres Volcan.






- Altitude de l'aérodrome : 74 ft
- Code IATA : MRS


LFML - Marseille / Marignane

DERNIER METAR :
  • 281130Z AUTO 24012KT CAVOK 25/15 Q1023 NOSIG

METARs EXPIRÉS :
  • 281100Z AUTO 24010KT CAVOK 24/15 Q1024 NOSIG
  • 281030Z AUTO 23006KT 200V270 CAVOK 24/14 Q1024 NOSIG
  • 281000Z AUTO 25005KT 9999 FEW010 23/13 Q1024 NOSIG
  • 280930Z AUTO 25006KT CAVOK 23/14 Q1025 NOSIG
  • 280900Z AUTO 25006KT CAVOK 22/14 Q1025 NOSIG

TAF TAF LFML
Valide du 28 à 09h jusqu'au 29 à 15h UTC


280800Z 2809/2915 VRB03KT CAVOK TX27/2814Z TN15/2905Z
BECMG 2810/2813 24012KT
BECMG 2816/2819 VRB03KT
PROB40
TEMPO 2902/2906 BKN010
BECMG 2908/2911 17012KT
TEMPO 2911/2915 17015G25KT
ATIS : +33 4 42 31 15 15



MET'MAP, la Météo Aéronautique d'un coup d'oeil ! - Copyright ORBIFLY Décembre 2007 - Disclaimer

ORBIFLY MET'MAP TEAM :

Programmation & Développement : Alexandra Zaïnal
Sur une idée originale de : Baudouin d'Aumeries
Assistance à la programmation : Marc-Olivier Méhu
Soutien technique & logistique : Manuel Goepfert

Contact : metmap@orbifly.com




SOURCES & CREDITS :

   NOAA